Time;durP1;ratioP1;P1;durP2;ratioP2;P2;SDS_P1;SDS_P2;PMS_P1;PMS_P2;Temp;Humidity;BMP_temperature;BMP_pressure;BME280_temperature;BME280_humidity;BME280_pressure;Samples;Min_cycle;Max_cycle;Signal;HPM_P1;HPM_P2
2020/12/21 00:00:16;;;;;;;144.80;14.55;;;8.60;1.00;;;;;;5051657;28;20033;-90
2020/12/21 00:02:44;;;;;;;40.97;11.85;;;8.30;1.00;;;;;;5070988;28;20021;-91
2020/12/21 00:05:10;;;;;;;15.68;10.82;;;8.20;1.00;;;;;;5050081;28;20056;-91
2020/12/21 00:07:35;;;;;;;25.88;11.02;;;8.00;1.00;;;;;;5056121;28;20527;-91
2020/12/21 00:10:02;;;;;;;45.55;11.60;;;8.00;1.00;;;;;;5070522;28;20059;-91
2020/12/21 00:12:28;;;;;;;29.00;10.77;;;7.90;1.00;;;;;;5055301;28;20028;-91
2020/12/21 00:14:54;;;;;;;29.13;10.77;;;7.90;1.00;;;;;;5059183;28;20029;-91
2020/12/21 00:17:20;;;;;;;36.45;11.43;;;8.00;1.00;;;;;;5055468;28;20021;-91
2020/12/21 00:19:45;;;;;;;115.55;13.18;;;8.00;1.00;;;;;;5058381;28;20032;-91
2020/12/21 00:22:11;;;;;;;96.80;12.45;;;7.80;1.00;;;;;;5058800;28;20020;-91
2020/12/21 00:24:36;;;;;;;78.38;14.07;;;7.90;1.00;;;;;;5058139;28;20404;-91
2020/12/21 00:27:02;;;;;;;26.75;12.65;;;8.10;1.00;;;;;;5058233;28;20040;-91
2020/12/21 00:29:28;;;;;;;21.92;11.80;;;8.10;1.00;;;;;;5047763;28;20126;-91
2020/12/21 00:31:56;;;;;;;16.15;11.55;;;8.00;1.00;;;;;;5055793;28;20500;-91
2020/12/21 00:34:21;;;;;;;22.48;12.40;;;7.90;1.00;;;;;;5051026;28;20075;-91
2020/12/21 00:36:49;;;;;;;19.67;12.48;;;7.90;1.00;;;;;;5058454;28;20476;-91
2020/12/21 00:39:16;;;;;;;42.20;13.50;;;7.90;1.00;;;;;;5056112;28;21470;-91
2020/12/21 00:41:43;;;;;;;32.13;13.55;;;8.10;1.00;;;;;;5058506;28;20025;-91
2020/12/21 00:44:09;;;;;;;43.17;12.98;;;8.10;1.00;;;;;;5058410;28;20055;-91
2020/12/21 00:46:35;;;;;;;19.95;12.43;;;7.90;1.00;;;;;;5053748;28;20448;-91
2020/12/21 00:49:01;;;;;;;36.40;13.32;;;7.70;1.00;;;;;;5046215;28;20480;-91
2020/12/21 00:51:27;;;;;;;20.65;12.45;;;7.80;1.00;;;;;;5064717;28;20020;-91
2020/12/21 00:53:53;;;;;;;25.17;11.95;;;7.90;1.00;;;;;;5057939;28;20078;-91
2020/12/21 00:56:20;;;;;;;16.05;11.63;;;7.70;1.00;;;;;;5057972;28;20074;-91
2020/12/21 00:58:47;;;;;;;15.48;11.60;;;7.60;1.00;;;;;;5058134;28;20086;-91
2020/12/21 01:01:14;;;;;;;17.80;11.85;;;7.60;1.00;;;;;;5053483;28;20433;-91
2020/12/21 01:03:40;;;;;;;17.02;11.10;;;7.80;1.00;;;;;;5058069;28;20013;-91
2020/12/21 01:06:06;;;;;;;14.68;11.27;;;8.10;1.00;;;;;;5057636;28;20112;-91
2020/12/21 01:08:32;;;;;;;16.95;12.18;;;7.60;1.00;;;;;;5055700;28;20603;-91
2020/12/21 01:10:58;;;;;;;19.45;13.27;;;7.90;1.00;;;;;;5057544;28;20024;-91
2020/12/21 01:13:24;;;;;;;20.67;13.30;;;8.00;1.00;;;;;;5047070;28;20029;-91
2020/12/21 01:15:49;;;;;;;24.35;14.57;;;8.00;1.00;;;;;;5054227;28;20528;-91
2020/12/21 01:18:15;;;;;;;25.58;14.63;;;7.80;1.00;;;;;;5057803;28;20116;-91
2020/12/21 01:20:41;;;;;;;22.98;14.82;;;7.90;1.00;;;;;;5057278;28;20107;-91
2020/12/21 01:23:07;;;;;;;39.28;14.57;;;7.90;1.00;;;;;;5057512;28;20023;-91
2020/12/21 01:25:33;;;;;;;32.10;14.32;;;8.00;1.00;;;;;;5054018;28;20068;-91
2020/12/21 01:27:59;;;;;;;26.00;13.27;;;7.90;1.00;;;;;;5054549;28;20484;-91
2020/12/21 01:30:24;;;;;;;35.72;13.85;;;7.80;1.00;;;;;;5054900;28;20028;-91
2020/12/21 01:32:50;;;;;;;50.92;14.27;;;7.80;1.00;;;;;;5057480;28;20035;-91
2020/12/21 01:35:16;;;;;;;44.28;12.93;;;8.00;1.00;;;;;;5057363;28;20029;-91
2020/12/21 01:37:43;;;;;;;57.53;12.90;;;8.10;1.00;;;;;;5046357;28;20050;-91
2020/12/21 01:40:10;;;;;;;66.57;14.00;;;8.00;1.00;;;;;;5054028;28;20029;-91
2020/12/21 01:42:36;;;;;;;77.40;14.18;;;7.90;1.00;;;;;;5071428;28;20021;-91
2020/12/21 01:45:07;;;;;;;63.08;12.15;;;7.70;1.00;;;;;;5056652;28;20487;-91
2020/12/21 01:47:34;;;;;;;50.70;13.18;;;7.70;1.00;;;;;;5052470;28;20020;-91
2020/12/21 01:50:00;;;;;;;49.90;12.70;;;7.70;1.00;;;;;;5057019;28;20035;-91
2020/12/21 01:52:26;;;;;;;46.47;12.60;;;7.60;1.00;;;;;;5056793;28;20066;-91
2020/12/21 01:54:52;;;;;;;28.42;12.73;;;7.60;1.00;;;;;;5048950;28;20033;-90
2020/12/21 01:57:18;;;;;;;28.55;12.40;;;7.70;1.00;;;;;;5057125;28;20020;-91
2020/12/21 01:59:43;;;;;;;29.73;12.32;;;7.60;1.00;;;;;;5054821;28;20073;-91
2020/12/21 02:02:11;;;;;;;22.67;12.45;;;7.80;1.00;;;;;;5056314;28;20017;-91
2020/12/21 02:04:37;;;;;;;22.85;12.32;;;7.80;1.00;;;;;;5073491;28;20115;-91
2020/12/21 02:07:05;;;;;;;18.55;11.25;;;7.80;1.00;;;;;;5056127;28;20511;-91
2020/12/21 02:09:31;;;;;;;15.23;11.52;;;7.80;1.00;;;;;;5057252;28;20021;-91
2020/12/21 02:11:56;;;;;;;13.98;10.80;;;7.50;1.00;;;;;;5053006;28;20017;-91
2020/12/21 02:14:22;;;;;;;14.25;10.50;;;7.50;1.00;;;;;;5056488;28;20545;-91
2020/12/21 02:16:48;;;;;;;14.82;11.13;;;7.80;1.00;;;;;;5055820;28;20060;-91
2020/12/21 02:19:14;;;;;;;17.00;10.93;;;7.30;1.00;;;;;;5043624;28;20036;-91
2020/12/21 02:21:40;;;;;;;18.52;11.55;;;7.90;1.00;;;;;;5055783;28;20028;-91
2020/12/21 02:24:08;;;;;;;16.90;11.23;;;7.40;1.00;;;;;;5051234;28;20431;-91
2020/12/21 02:26:34;;;;;;;15.50;11.13;;;7.50;1.00;;;;;;5052322;28;20047;-91
2020/12/21 02:29:00;;;;;;;17.00;10.32;;;7.40;1.00;;;;;;5053085;28;20116;-90
2020/12/21 02:31:26;;;;;;;13.75;9.80;;;8.00;1.00;;;;;;5056051;28;20054;-91
2020/12/21 02:33:53;;;;;;;13.25;10.13;;;7.40;1.00;;;;;;5051655;28;20020;-91
2020/12/21 02:36:19;;;;;;;42.00;10.05;;;7.70;1.00;;;;;;5052982;28;20060;-91
2020/12/21 02:38:45;;;;;;;44.13;10.60;;;7.50;1.00;;;;;;5055351;28;20484;-91
2020/12/21 02:41:15;;;;;;;117.40;10.98;;;7.90;1.00;;;;;;5055955;28;20021;-91
2020/12/21 02:43:41;;;;;;;88.80;10.05;;;7.60;1.00;;;;;;5056073;28;20040;-91
2020/12/21 02:46:11;;;;;;;30.58;8.75;;;7.80;1.00;;;;;;5055682;28;20017;-91
2020/12/21 02:48:37;;;;;;;58.40;8.90;;;7.60;1.00;;;;;;5047793;28;20032;-91
2020/12/21 02:51:03;;;;;;;13.75;7.40;;;7.70;1.00;;;;;;5046805;28;20021;-91
2020/12/21 02:53:28;;;;;;;9.15;7.22;;;7.70;1.00;;;;;;5047598;28;20043;-91
2020/12/21 02:55:54;;;;;;;8.95;7.43;;;7.40;1.00;;;;;;5053548;28;20112;-91
2020/12/21 02:58:20;;;;;;;8.80;6.57;;;7.30;1.00;;;;;;5047439;28;20032;-91
2020/12/21 03:00:46;;;;;;;9.82;6.28;;;7.20;1.00;;;;;;5055561;28;20026;-91
2020/12/21 03:03:12;;;;;;;8.70;5.95;;;7.30;1.00;;;;;;5055949;28;20021;-91
2020/12/21 03:05:39;;;;;;;7.32;6.28;;;7.60;1.00;;;;;;5055498;28;20028;-91
2020/12/21 03:08:06;;;;;;;11.00;6.68;;;7.30;1.00;;;;;;5052549;28;20145;-91
2020/12/21 03:10:33;;;;;;;9.43;6.78;;;7.90;1.00;;;;;;5052400;28;20054;-91
2020/12/21 03:12:59;;;;;;;8.43;6.50;;;7.50;1.00;;;;;;5045577;28;20036;-91
2020/12/21 03:15:25;;;;;;;8.57;6.25;;;7.30;1.00;;;;;;5048750;28;20052;-91
2020/12/21 03:17:50;;;;;;;49.45;8.60;;;7.70;1.00;;;;;;5054551;28;20051;-91
2020/12/21 03:20:16;;;;;;;34.00;8.55;;;7.50;1.00;;;;;;5051818;28;20524;-91
2020/12/21 03:22:42;;;;;;;36.90;8.50;;;7.20;1.00;;;;;;5055772;28;20036;-91
2020/12/21 03:25:08;;;;;;;32.60;8.27;;;7.20;1.00;;;;;;5054527;28;20032;-91
2020/12/21 03:27:35;;;;;;;18.80;8.57;;;7.10;1.00;;;;;;5051154;28;20028;-91
2020/12/21 03:30:03;;;;;;;26.30;8.95;;;7.10;1.00;;;;;;5054021;28;20025;-91
2020/12/21 03:32:28;;;;;;;17.92;8.68;;;7.10;1.00;;;;;;5051802;28;20374;-91
2020/12/21 03:34:54;;;;;;;45.55;10.25;;;7.10;1.00;;;;;;5039006;28;20028;-91
2020/12/21 03:37:20;;;;;;;153.10;12.60;;;7.40;1.00;;;;;;5052987;28;20028;-91
2020/12/21 03:39:45;;;;;;;47.17;9.90;;;7.10;1.00;;;;;;5051925;28;20025;-91
2020/12/21 03:42:11;;;;;;;122.85;11.75;;;7.10;1.00;;;;;;5053122;28;20123;-91
2020/12/21 03:44:36;;;;;;;203.55;12.80;;;7.00;1.00;;;;;;5051770;28;20028;-91
2020/12/21 03:47:02;;;;;;;40.65;10.18;;;6.90;1.00;;;;;;5054825;28;20480;-91
2020/12/21 03:49:27;;;;;;;93.43;11.38;;;7.40;1.00;;;;;;5069735;28;20066;-91
2020/12/21 03:51:53;;;;;;;74.30;11.15;;;7.00;1.00;;;;;;5070621;28;20051;-91
2020/12/21 03:54:19;;;;;;;139.57;12.73;;;7.10;1.00;;;;;;5070880;28;20052;-90
2020/12/21 03:56:44;;;;;;;91.53;11.43;;;6.80;1.00;;;;;;5055130;28;20119;-91
2020/12/21 03:59:11;;;;;;;157.57;13.00;;;7.00;1.00;;;;;;5054648;28;20016;-91
2020/12/21 04:01:37;;;;;;;70.85;10.77;;;6.80;1.00;;;;;;5040897;28;20029;-91
2020/12/21 04:04:04;;;;;;;261.48;14.23;;;6.90;1.00;;;;;;5064526;28;20071;-91
2020/12/21 04:06:30;;;;;;;43.05;10.52;;;7.20;1.00;;;;;;5050908;28;20024;-91
2020/12/21 04:08:56;;;;;;;35.60;11.50;;;7.40;1.00;;;;;;5047603;28;20110;-91
2020/12/21 04:11:21;;;;;;;197.55;13.63;;;7.20;1.00;;;;;;5054098;28;20029;-91
2020/12/21 04:13:47;;;;;;;78.63;11.15;;;7.50;1.00;;;;;;5055362;28;20024;-91
2020/12/21 04:16:12;;;;;;;41.67;12.05;;;7.30;1.00;;;;;;5047146;28;20094;-91
2020/12/21 04:18:38;;;;;;;90.40;12.05;;;7.30;1.00;;;;;;5051120;28;20404;-91
2020/12/21 04:21:04;;;;;;;55.10;11.57;;;7.40;1.00;;;;;;5053539;28;20111;-91
2020/12/21 04:23:29;;;;;;;37.88;11.15;;;7.60;1.00;;;;;;5053130;28;20108;-90
2020/12/21 04:25:55;;;;;;;47.90;10.85;;;7.80;1.00;;;;;;5051302;28;20053;-91
2020/12/21 04:28:21;;;;;;;161.48;11.65;;;7.30;1.00;;;;;;5054934;28;20021;-90
2020/12/21 04:30:46;;;;;;;127.82;11.63;;;7.30;1.00;;;;;;5054195;28;20130;-91
2020/12/21 04:33:12;;;;;;;29.35;9.45;;;7.50;1.00;;;;;;5050436;28;20488;-90
2020/12/21 04:35:37;;;;;;;46.13;10.20;;;7.40;1.00;;;;;;5044686;28;20037;-90
2020/12/21 04:38:03;;;;;;;110.78;11.00;;;7.70;1.00;;;;;;5041673;28;20025;-91
2020/12/21 04:40:29;;;;;;;138.82;11.32;;;7.40;1.00;;;;;;5051869;28;20469;-91
2020/12/21 04:42:54;;;;;;;136.65;10.98;;;7.50;1.00;;;;;;5050069;28;20029;-91
2020/12/21 04:45:21;;;;;;;72.53;10.90;;;7.40;1.00;;;;;;5054004;28;20058;-90
2020/12/21 04:47:47;;;;;;;82.70;10.77;;;7.50;1.00;;;;;;5044755;28;21513;-90
2020/12/21 04:50:15;;;;;;;21.05;9.50;;;7.60;1.00;;;;;;5057893;28;20017;-90
2020/12/21 04:52:51;;;;;;;19.77;9.45;;;7.50;1.00;;;;;;5057642;28;20029;-91
2020/12/21 04:55:20;;;;;;;25.75;9.38;;;7.60;1.00;;;;;;5054604;28;20037;-91
2020/12/21 04:57:59;;;;;;;27.98;9.57;;;7.70;1.00;;;;;;5057552;28;20024;-90
2020/12/21 05:00:26;;;;;;;19.90;8.20;;;7.40;1.00;;;;;;5050801;28;20032;-91
2020/12/21 05:02:53;;;;;;;14.73;8.25;;;7.50;1.00;;;;;;5075568;28;20114;-91
2020/12/21 05:05:41;;;;;;;26.70;8.23;;;7.50;1.00;;;;;;5056694;28;20100;-90
2020/12/21 05:08:08;;;;;;;23.33;7.50;;;7.50;1.00;;;;;;5057823;28;20040;-91
2020/12/21 05:10:36;;;;;;;21.35;7.85;;;7.50;1.00;;;;;;5054495;28;20039;-91
2020/12/21 05:13:03;;;;;;;35.90;7.50;;;7.60;1.00;;;;;;5070740;28;20028;-90
2020/12/21 05:15:28;;;;;;;34.45;7.55;;;7.70;1.00;;;;;;5057634;28;20472;-90
2020/12/21 05:18:06;;;;;;;49.50;8.70;;;7.60;1.00;;;;;;5054724;28;20036;-90
2020/12/21 05:20:33;;;;;;;31.05;7.68;;;7.60;1.00;;;;;;5056265;28;20124;-91
2020/12/21 05:22:59;;;;;;;32.67;7.97;;;7.60;1.00;;;;;;5053975;28;20023;-91
2020/12/21 05:25:25;;;;;;;45.33;8.32;;;7.50;1.00;;;;;;5047577;28;20472;-91
2020/12/21 05:27:50;;;;;;;39.28;8.07;;;7.50;1.00;;;;;;5054263;28;20021;-91
2020/12/21 05:30:16;;;;;;;31.98;8.98;;;7.70;1.00;;;;;;5053982;28;20124;-91
2020/12/21 05:32:42;;;;;;;30.70;8.57;;;7.60;1.00;;;;;;5053273;28;20025;-91
2020/12/21 05:35:09;;;;;;;42.05;8.73;;;7.70;1.00;;;;;;5054187;28;20032;-91
2020/12/21 05:37:37;;;;;;;33.28;9.18;;;7.70;1.00;;;;;;5053848;28;20096;-91
2020/12/21 05:40:05;;;;;;;31.60;9.15;;;7.70;1.00;;;;;;5054103;28;20119;-90
2020/12/21 05:42:31;;;;;;;27.52;8.52;;;7.70;1.00;;;;;;5053872;28;20078;-92
2020/12/21 05:44:58;;;;;;;37.78;9.30;;;7.80;1.00;;;;;;5053479;28;20127;-90
2020/12/21 05:47:54;;;;;;;30.77;8.60;;;7.80;1.00;;;;;;5069045;28;20025;-91
2020/12/21 05:50:21;;;;;;;35.05;8.27;;;7.80;1.00;;;;;;5053424;28;20032;-90
2020/12/21 05:52:53;;;;;;;35.75;8.40;;;7.90;1.00;;;;;;5053876;28;20396;-90
2020/12/21 05:55:21;;;;;;;29.85;8.68;;;7.80;1.00;;;;;;5053892;28;20029;-92
2020/12/21 05:57:48;;;;;;;24.20;9.43;;;7.70;1.00;;;;;;5053434;28;20017;-88
2020/12/21 06:00:15;;;;;;;31.35;8.60;;;7.60;1.00;;;;;;5054289;28;20126;-92
2020/12/21 06:02:41;;;;;;;21.75;7.90;;;8.00;1.00;;;;;;5053504;28;20171;-92
2020/12/21 06:05:12;;;;;;;48.45;8.68;;;7.60;1.00;;;;;;5052897;28;20493;-87
2020/12/21 06:07:39;;;;;;;28.00;8.15;;;8.00;1.00;;;;;;5052462;28;20062;-87
2020/12/21 06:10:07;;;;;;;13.77;7.80;;;7.50;1.00;;;;;;5069328;28;20025;-91
2020/12/21 06:12:51;;;;;;;13.40;8.25;;;7.40;1.00;;;;;;5051880;28;20017;-87
2020/12/21 06:15:23;;;;;;;8.63;7.22;;;7.10;1.00;;;;;;5051581;28;20033;-87
2020/12/21 06:17:49;;;;;;;10.63;6.93;;;7.10;1.00;;;;;;5053713;28;20088;-88
2020/12/21 06:20:15;;;;;;;8.35;6.93;;;7.40;1.00;;;;;;5051804;28;20191;-87
2020/12/21 06:22:40;;;;;;;8.15;6.90;;;7.00;1.00;;;;;;5052526;28;20059;-88
2020/12/21 06:25:07;;;;;;;8.63;6.72;;;6.90;1.00;;;;;;5055300;28;20040;-88
2020/12/21 06:27:41;;;;;;;8.77;7.20;;;6.90;1.00;;;;;;5054913;28;20094;-87
2020/12/21 06:30:08;;;;;;;7.72;6.43;;;7.00;1.00;;;;;;5055734;28;20021;-86
2020/12/21 06:32:35;;;;;;;9.10;6.95;;;7.00;1.00;;;;;;5035769;28;20096;-87
2020/12/21 06:35:03;;;;;;;7.15;6.22;;;7.10;1.00;;;;;;5029201;28;20115;-88
2020/12/21 06:37:29;;;;;;;8.90;6.82;;;7.40;1.00;;;;;;5035621;28;20373;-87
2020/12/21 06:40:00;;;;;;;9.18;6.88;;;7.00;1.00;;;;;;5034960;28;20059;-87
2020/12/21 06:42:26;;;;;;;8.55;6.70;;;7.00;1.00;;;;;;5038172;28;20036;-87
2020/12/21 06:44:54;;;;;;;7.85;6.57;;;6.90;1.00;;;;;;5039705;28;20017;-87
2020/12/21 06:47:22;;;;;;;7.88;6.50;;;6.80;1.00;;;;;;5052937;28;20454;-87
2020/12/21 06:49:47;;;;;;;10.02;7.00;;;6.90;1.00;;;;;;5035189;28;20021;-87
2020/12/21 06:52:13;;;;;;;8.52;6.97;;;7.00;1.00;;;;;;5034835;28;20444;-87
2020/12/21 06:54:38;;;;;;;13.05;8.13;;;7.00;1.00;;;;;;5034503;28;20032;-87
2020/12/21 06:57:04;;;;;;;32.72;8.60;;;7.00;1.00;;;;;;5052781;28;20492;-87
2020/12/21 06:59:30;;;;;;;39.05;9.02;;;7.00;1.00;;;;;;5051970;28;20056;-87
2020/12/21 07:01:56;;;;;;;20.55;9.00;;;7.20;1.00;;;;;;5040831;28;20073;-88
2020/12/21 07:04:30;;;;;;;19.30;8.80;;;7.20;1.00;;;;;;5052849;28;20017;-87
2020/12/21 07:06:59;;;;;;;44.35;9.07;;;7.10;1.00;;;;;;5035133;28;20036;-87
2020/12/21 07:09:27;;;;;;;37.85;9.00;;;7.40;1.00;;;;;;5034035;28;20017;-90
2020/12/21 07:11:54;;;;;;;60.15;9.27;;;7.20;1.00;;;;;;5034815;28;20036;-90
2020/12/21 07:14:22;;;;;;;65.80;8.30;;;7.30;1.00;;;;;;5035485;28;20062;-89
2020/12/21 07:16:48;;;;;;;35.28;8.82;;;7.80;1.00;;;;;;5034846;28;20033;-88
2020/12/21 07:19:14;;;;;;;24.88;8.35;;;7.20;1.00;;;;;;5028700;28;20049;-89
2020/12/21 07:21:40;;;;;;;58.17;8.70;;;7.40;1.00;;;;;;5020260;28;20398;-88
2020/12/21 07:24:07;;;;;;;28.20;8.82;;;8.00;1.00;;;;;;5034128;28;20021;-88
2020/12/21 07:26:33;;;;;;;23.65;8.63;;;7.40;1.00;;;;;;5049703;28;20080;-89
2020/12/21 07:28:59;;;;;;;16.70;8.50;;;7.40;1.00;;;;;;5054888;28;20017;-88
2020/12/21 07:31:25;;;;;;;19.70;9.93;;;7.80;1.00;;;;;;5054082;28;20028;-88
2020/12/21 07:33:59;;;;;;;10.73;8.50;;;7.40;1.00;;;;;;5059769;28;20028;-89
2020/12/21 07:36:30;;;;;;;11.20;8.40;;;7.30;1.00;;;;;;5074675;28;20127;-89
2020/12/21 07:39:17;;;;;;;11.50;7.85;;;7.30;1.00;;;;;;5074346;28;20073;-88
2020/12/21 07:41:48;;;;;;;9.85;7.97;;;8.00;1.00;;;;;;5074882;28;20032;-89
2020/12/21 07:44:16;;;;;;;10.13;8.02;;;7.70;1.00;;;;;;5073440;28;20027;-89
2020/12/21 07:46:51;;;;;;;11.93;8.68;;;7.90;1.00;;;;;;5054453;28;20116;-88
2020/12/21 07:49:17;;;;;;;10.75;7.90;;;8.10;1.00;;;;;;5054947;28;20063;-89
2020/12/21 07:51:43;;;;;;;11.27;8.88;;;8.50;1.00;;;;;;5054359;28;20481;-89
2020/12/21 07:54:12;;;;;;;10.10;7.82;;;8.90;1.00;;;;;;5054988;28;20032;-89
2020/12/21 07:56:38;;;;;;;9.95;7.75;;;8.90;1.00;;;;;;5054690;28;20025;-89
2020/12/21 07:59:16;;;;;;;11.00;7.13;;;8.90;1.00;;;;;;5054743;28;20051;-89
2020/12/21 08:01:43;;;;;;;7.65;6.10;;;9.40;1.00;;;;;;5041728;28;20032;-89
2020/12/21 08:04:18;;;;;;;7.05;6.20;;;9.50;1.00;;;;;;5054715;28;20024;-89
2020/12/21 08:06:47;;;;;;;8.63;6.25;;;9.40;1.00;;;;;;5072212;28;20025;-89
2020/12/21 08:09:13;;;;;;;7.97;6.30;;;9.40;1.00;;;;;;5054803;28;20034;-89
2020/12/21 08:11:39;;;;;;;6.25;5.20;;;9.30;1.00;;;;;;5054438;28;20028;-89
2020/12/21 08:14:08;;;;;;;10.63;5.13;;;9.40;1.00;;;;;;5054249;28;20021;-89
2020/12/21 08:16:34;;;;;;;6.80;5.15;;;9.80;1.00;;;;;;5054611;28;20025;-89
2020/12/21 08:19:00;;;;;;;6.38;5.20;;;9.60;1.00;;;;;;5054654;28;20384;-88
2020/12/21 08:21:29;;;;;;;5.43;4.38;;;9.40;1.00;;;;;;5054172;28;20200;-89
2020/12/21 08:23:58;;;;;;;5.88;4.72;;;9.40;1.00;;;;;;5037736;28;20025;-89
2020/12/21 08:26:27;;;;;;;5.93;4.43;;;9.40;1.00;;;;;;5055764;28;20040;-88
2020/12/21 08:28:54;;;;;;;5.97;4.80;;;9.40;1.00;;;;;;5038203;28;20032;-89
2020/12/21 08:31:24;;;;;;;7.35;5.90;;;9.40;1.00;;;;;;5055956;28;20040;-89
2020/12/21 08:34:07;;;;;;;7.93;5.95;;;9.50;1.00;;;;;;5075861;28;20100;-89
2020/12/21 08:36:38;;;;;;;6.00;4.85;;;9.50;1.00;;;;;;5070431;28;20538;-89
2020/12/21 08:39:09;;;;;;;6.13;4.57;;;9.70;1.00;;;;;;5074692;28;20048;-89
2020/12/21 08:41:46;;;;;;;4.32;3.20;;;9.80;1.00;;;;;;5075634;28;20024;-89
2020/12/21 08:44:23;;;;;;;5.10;2.70;;;9.90;1.00;;;;;;5072666;28;20019;-89
2020/12/21 08:46:54;;;;;;;2.55;2.33;;;9.80;1.00;;;;;;5057571;28;20032;-89
2020/12/21 08:49:20;;;;;;;3.08;2.70;;;9.90;1.00;;;;;;5074697;28;20024;-89
2020/12/21 08:51:50;;;;;;;5.65;2.72;;;9.80;1.00;;;;;;5057825;28;20123;-89
2020/12/21 08:54:16;;;;;;;4.55;2.92;;;9.90;1.00;;;;;;5057889;28;20027;-89
2020/12/21 08:56:52;;;;;;;3.78;2.67;;;10.00;1.00;;;;;;5075440;28;20032;-89
2020/12/21 08:59:18;;;;;;;3.67;2.58;;;10.10;1.00;;;;;;5075149;28;20024;-89
2020/12/21 09:01:44;;;;;;;3.20;2.60;;;10.10;1.00;;;;;;5057682;28;20029;-89
2020/12/21 09:04:11;;;;;;;3.28;2.40;;;10.20;1.00;;;;;;5057368;28;20023;-89
2020/12/21 09:06:37;;;;;;;3.33;2.30;;;10.30;1.00;;;;;;5057413;28;20025;-90
2020/12/21 09:09:04;;;;;;;4.35;2.05;;;10.50;1.00;;;;;;5075467;28;20086;-89
2020/12/21 09:11:30;;;;;;;2.72;2.10;;;10.50;1.00;;;;;;5057533;28;20029;-89
2020/12/21 09:13:55;;;;;;;4.47;2.50;;;10.60;1.00;;;;;;5056540;28;20077;-89
2020/12/21 09:16:26;;;;;;;2.83;2.28;;;10.70;1.00;;;;;;5057461;28;20138;-89
2020/12/21 09:18:53;;;;;;;2.78;2.47;;;10.80;1.00;;;;;;5057020;28;20029;-89
2020/12/21 09:21:23;;;;;;;2.20;2.00;;;10.70;1.00;;;;;;5057305;28;20036;-89
2020/12/21 09:24:00;;;;;;;2.50;2.25;;;10.80;1.00;;;;;;5057399;28;20510;-89
2020/12/21 09:26:26;;;;;;;2.60;2.28;;;10.80;1.00;;;;;;5057338;28;20059;-89
2020/12/21 09:28:53;;;;;;;4.43;2.50;;;10.80;1.00;;;;;;5056374;28;20027;-89
2020/12/21 09:31:20;;;;;;;3.13;2.53;;;10.60;1.00;;;;;;5074981;28;20031;-89
2020/12/21 09:33:47;;;;;;;3.85;3.15;;;10.70;1.00;;;;;;5056303;28;20499;-89
2020/12/21 09:36:14;;;;;;;3.30;2.72;;;10.60;1.00;;;;;;5060814;28;20041;-89
2020/12/21 09:38:40;;;;;;;3.30;2.72;;;10.60;1.00;;;;;;5073585;28;20025;-89
2020/12/21 09:41:06;;;;;;;2.90;2.60;;;10.60;1.00;;;;;;5086394;28;20089;-89
2020/12/21 09:43:32;;;;;;;3.10;2.25;;;10.60;1.00;;;;;;5053740;28;20486;-89
2020/12/21 09:45:58;;;;;;;2.75;2.40;;;10.60;1.00;;;;;;5056615;28;20035;-89
2020/12/21 09:48:24;;;;;;;2.45;2.17;;;10.60;1.00;;;;;;5056652;28;20465;-89
2020/12/21 09:50:49;;;;;;;2.45;2.25;;;10.60;1.00;;;;;;5056815;28;20085;-89
2020/12/21 09:53:16;;;;;;;2.28;1.98;;;10.60;1.00;;;;;;5057139;28;20059;-89
2020/12/21 09:55:42;;;;;;;2.72;2.17;;;10.50;1.00;;;;;;5055826;28;20043;-89
2020/12/21 09:58:08;;;;;;;2.60;2.20;;;10.60;1.00;;;;;;5073255;28;20411;-89
2020/12/21 10:00:34;;;;;;;4.85;2.22;;;10.70;1.00;;;;;;5073497;28;20119;-89
2020/12/21 10:02:59;;;;;;;3.35;2.63;;;10.80;1.00;;;;;;5056454;28;20024;-89
2020/12/21 10:05:25;;;;;;;2.47;2.28;;;10.80;1.00;;;;;;5056422;28;20032;-89
2020/12/21 10:07:50;;;;;;;2.10;1.90;;;10.80;1.00;;;;;;5056720;28;20107;-89
2020/12/21 10:10:16;;;;;;;2.97;2.45;;;11.00;1.00;;;;;;5055280;28;20032;-89
2020/12/21 10:12:42;;;;;;;6.50;2.08;;;11.00;1.00;;;;;;5072187;28;20024;-89
2020/12/21 10:15:07;;;;;;;2.08;1.83;;;10.90;1.00;;;;;;5056084;28;20110;-89
2020/12/21 10:17:33;;;;;;;2.30;1.90;;;10.80;1.00;;;;;;5056104;28;20031;-89
2020/12/21 10:19:59;;;;;;;2.85;2.08;;;10.80;1.00;;;;;;5072677;28;20025;-90
2020/12/21 10:22:25;;;;;;;2.33;2.00;;;10.80;1.00;;;;;;5055851;28;20557;-90
2020/12/21 10:24:50;;;;;;;3.13;2.33;;;10.80;1.00;;;;;;5055002;28;20105;-87
2020/12/21 10:27:16;;;;;;;2.28;2.08;;;10.80;1.00;;;;;;5035672;28;20259;-89
2020/12/21 10:29:41;;;;;;;2.15;1.85;;;10.90;1.00;;;;;;5053863;28;20396;-89
2020/12/21 10:32:07;;;;;;;2.10;1.90;;;10.90;1.00;;;;;;5052669;28;20548;-89
2020/12/21 10:34:33;;;;;;;3.63;2.40;;;10.80;1.00;;;;;;5036143;28;20033;-89
2020/12/21 10:36:59;;;;;;;1.85;1.65;;;10.90;1.00;;;;;;5064144;28;20480;-89
2020/12/21 10:39:24;;;;;;;2.10;1.90;;;10.90;1.00;;;;;;5055841;28;20032;-89
2020/12/21 10:41:50;;;;;;;1.75;1.65;;;11.00;1.00;;;;;;5032193;28;20029;-89
2020/12/21 10:44:16;;;;;;;3.35;1.90;;;11.00;1.00;;;;;;5032644;28;20036;-90
2020/12/21 10:46:42;;;;;;;1.48;1.38;;;11.10;1.00;;;;;;5032165;28;20116;-89
2020/12/21 10:49:08;;;;;;;1.80;1.40;;;11.00;1.00;;;;;;5032628;28;20029;-89
2020/12/21 10:51:34;;;;;;;1.90;1.42;;;11.10;1.00;;;;;;5032599;28;20021;-89
2020/12/21 10:54:00;;;;;;;1.95;1.23;;;11.00;1.00;;;;;;5032318;28;20504;-88
2020/12/21 10:56:56;;;;;;;2.60;1.48;;;11.10;1.00;;;;;;5034242;28;20025;-95
2020/12/21 10:59:22;;;;;;;2.00;1.42;;;11.10;1.00;;;;;;5036082;28;20029;-91
2020/12/21 11:01:47;;;;;;;1.50;1.40;;;11.10;1.00;;;;;;5037236;28;20088;-95
2020/12/21 11:04:13;;;;;;;2.15;1.92;;;11.10;1.00;;;;;;5038297;28;20029;-95
2020/12/21 11:06:39;;;;;;;2.45;1.70;;;11.10;1.00;;;;;;5035833;28;20025;-94
2020/12/21 11:09:04;;;;;;;2.25;1.80;;;11.20;1.00;;;;;;5037057;28;20021;-94
2020/12/21 11:11:33;;;;;;;1.80;1.30;;;11.30;1.00;;;;;;5038539;28;20028;-95
2020/12/21 11:14:03;;;;;;;1.63;1.42;;;11.30;1.00;;;;;;5053179;28;20072;-90
2020/12/21 11:16:29;;;;;;;2.13;1.70;;;11.30;1.00;;;;;;5032893;28;20029;-91
2020/12/21 11:18:55;;;;;;;2.05;1.85;;;11.40;1.00;;;;;;5037384;28;20044;-92
2020/12/21 11:21:20;;;;;;;2.42;1.85;;;11.50;1.00;;;;;;5033396;28;20872;-89
2020/12/21 11:23:46;;;;;;;1.75;1.65;;;11.90;1.00;;;;;;5034245;28;20032;-87
2020/12/21 11:26:13;;;;;;;1.80;1.70;;;12.40;1.00;;;;;;5063528;28;20563;-90
2020/12/21 11:28:39;;;;;;;2.40;1.63;;;13.00;1.00;;;;;;5050071;28;20087;-90
2020/12/21 11:31:05;;;;;;;2.00;1.77;;;12.70;1.00;;;;;;5050703;28;20037;-92
2020/12/21 11:33:31;;;;;;;2.17;1.98;;;12.40;1.00;;;;;;5055647;28;20028;-92
2020/12/21 11:35:57;;;;;;;1.52;1.42;;;12.00;1.00;;;;;;5040913;28;20048;-96
2020/12/21 11:38:23;;;;;;;2.17;1.90;;;12.10;1.00;;;;;;5052063;28;20028;-92
2020/12/21 11:40:49;;;;;;;2.30;1.70;;;11.90;1.00;;;;;;5052757;28;20028;-90
2020/12/21 11:43:15;;;;;;;3.70;2.00;;;12.00;1.00;;;;;;5055393;28;20083;-92
2020/12/21 11:45:41;;;;;;;2.15;1.77;;;12.00;1.00;;;;;;5042597;28;20401;-92
2020/12/21 11:48:07;;;;;;;2.05;1.67;;;12.00;1.00;;;;;;5054192;28;20020;-88
2020/12/21 11:50:33;;;;;;;2.10;1.80;;;11.90;1.00;;;;;;5069177;28;20017;-90
2020/12/21 11:52:58;;;;;;;2.25;1.70;;;12.00;1.00;;;;;;5052979;28;20075;-92
2020/12/21 11:55:24;;;;;;;1.90;1.70;;;11.80;1.00;;;;;;5054712;28;20061;-83
2020/12/21 11:57:50;;;;;;;1.85;1.60;;;11.90;1.00;;;;;;5072827;28;20024;-82
2020/12/21 12:00:15;;;;;;;1.70;1.52;;;11.80;1.00;;;;;;5075240;28;20442;-85
2020/12/21 12:02:41;;;;;;;2.83;1.83;;;12.00;1.00;;;;;;5076266;28;20102;-85
2020/12/21 12:05:13;;;;;;;1.42;1.33;;;11.90;1.00;;;;;;5071075;28;20040;-83
2020/12/21 12:07:39;;;;;;;3.28;1.33;;;11.90;1.00;;;;;;5076147;28;20052;-84
2020/12/21 12:10:05;;;;;;;1.35;1.23;;;11.90;1.00;;;;;;5074510;28;20093;-87
2020/12/21 12:12:31;;;;;;;1.77;1.48;;;11.80;1.00;;;;;;5055999;28;20041;-87
2020/12/21 12:14:57;;;;;;;3.00;1.38;;;11.80;1.00;;;;;;5058060;28;20025;-82
2020/12/21 12:17:23;;;;;;;1.80;1.65;;;11.80;1.00;;;;;;5075352;28;20742;-85
2020/12/21 12:19:49;;;;;;;1.73;1.17;;;11.90;1.00;;;;;;5074743;28;20508;-89
2020/12/21 12:22:16;;;;;;;2.15;1.60;;;11.80;1.00;;;;;;5075246;28;20056;-86
2020/12/21 12:24:41;;;;;;;1.58;1.48;;;11.80;1.00;;;;;;5057013;28;20028;-88
2020/12/21 12:27:07;;;;;;;2.00;1.60;;;11.80;1.00;;;;;;5056599;28;20041;-86
2020/12/21 12:29:32;;;;;;;1.40;1.30;;;11.80;1.00;;;;;;5056994;28;20507;-85
2020/12/21 12:31:58;;;;;;;1.67;1.48;;;11.70;1.00;;;;;;5074822;28;20078;-86
2020/12/21 12:34:24;;;;;;;1.48;1.30;;;11.80;1.00;;;;;;5057726;28;20024;-84
2020/12/21 12:36:49;;;;;;;1.73;1.45;;;11.70;1.00;;;;;;5057814;28;20024;-87
2020/12/21 12:39:15;;;;;;;1.60;1.42;;;11.70;1.00;;;;;;5054827;28;20062;-86
2020/12/21 12:41:42;;;;;;;4.25;1.58;;;11.80;1.00;;;;;;5074097;28;20553;-84
2020/12/21 12:44:08;;;;;;;1.80;1.50;;;11.90;1.00;;;;;;5057037;28;20020;-86
2020/12/21 12:46:34;;;;;;;1.80;1.60;;;11.80;1.00;;;;;;5067603;28;20077;-85
2020/12/21 12:49:05;;;;;;;1.73;1.60;;;11.80;1.00;;;;;;5075639;28;20096;-86
2020/12/21 12:51:31;;;;;;;1.90;1.70;;;11.80;1.00;;;;;;5075217;28;20413;-85
2020/12/21 12:53:57;;;;;;;2.10;1.90;;;11.90;1.00;;;;;;5055335;28;20507;-86